Time;durP1;ratioP1;P1;durP2;ratioP2;P2;SDS_P1;SDS_P2;PMS_P1;PMS_P2;Temp;Humidity;BMP_temperature;BMP_pressure;BME280_temperature;BME280_humidity;BME280_pressure;Samples;Min_cycle;Max_cycle;Signal;HPM_P1;HPM_P2
2023/10/24 00:01:11;;;;;;;4.57;1.40;;;14.00;99.90;;;;;;5090926;28;20415;-61
2023/10/24 00:03:37;;;;;;;4.05;1.25;;;14.00;99.90;;;;;;5090701;28;20501;-61
2023/10/24 00:06:03;;;;;;;2.78;1.17;;;14.00;99.90;;;;;;5091175;28;20028;-62
2023/10/24 00:08:29;;;;;;;2.03;0.93;;;13.90;99.90;;;;;;5091038;28;20024;-61
2023/10/24 00:11:02;;;;;;;4.95;1.30;;;13.90;99.90;;;;;;5091170;28;20517;-61
2023/10/24 00:13:28;;;;;;;3.63;1.10;;;13.90;99.90;;;;;;5091060;28;20028;-61
2023/10/24 00:15:53;;;;;;;2.65;1.25;;;13.80;99.90;;;;;;5093714;28;20054;-61
2023/10/24 00:18:19;;;;;;;2.58;1.13;;;13.80;99.90;;;;;;5094668;28;20044;-62
2023/10/24 00:20:45;;;;;;;2.15;1.00;;;13.80;99.90;;;;;;5095229;28;20030;-61
2023/10/24 00:23:10;;;;;;;3.45;1.10;;;13.70;99.90;;;;;;5094842;28;20094;-60
2023/10/24 00:25:36;;;;;;;3.25;1.20;;;13.70;99.90;;;;;;5094893;28;20055;-61
2023/10/24 00:28:02;;;;;;;3.35;1.00;;;13.70;99.90;;;;;;5097807;28;20102;-62
2023/10/24 00:30:27;;;;;;;5.15;1.20;;;13.70;99.90;;;;;;5115209;28;20074;-61
2023/10/24 00:32:53;;;;;;;2.63;0.90;;;13.70;99.90;;;;;;5114621;28;20019;-61
2023/10/24 00:35:19;;;;;;;3.75;1.13;;;13.60;99.90;;;;;;5115164;28;20024;-62
2023/10/24 00:37:45;;;;;;;2.30;0.93;;;13.60;99.90;;;;;;5115246;28;20040;-62
2023/10/24 00:40:11;;;;;;;2.92;1.00;;;13.60;99.90;;;;;;5115061;28;20024;-62
2023/10/24 00:42:36;;;;;;;3.33;1.10;;;13.50;99.90;;;;;;5115184;28;20032;-61
2023/10/24 00:45:02;;;;;;;5.50;1.13;;;13.60;99.90;;;;;;5114462;28;20085;-62
2023/10/24 00:47:28;;;;;;;3.42;1.10;;;13.50;99.90;;;;;;5114544;28;20039;-62
2023/10/24 00:49:54;;;;;;;2.67;1.15;;;13.50;99.90;;;;;;5115156;28;20024;-61
2023/10/24 00:52:20;;;;;;;1.48;0.77;;;13.70;99.90;;;;;;5114846;28;20161;-62
2023/10/24 00:54:47;;;;;;;3.63;1.10;;;13.90;99.90;;;;;;5115188;28;20028;-62
2023/10/24 00:57:13;;;;;;;4.07;1.10;;;14.00;99.90;;;;;;5114688;28;20140;-61
2023/10/24 00:59:43;;;;;;;2.90;1.02;;;14.10;99.90;;;;;;5096365;28;20016;-61
2023/10/24 01:02:09;;;;;;;3.67;1.17;;;14.20;99.90;;;;;;5114524;28;20037;-62
2023/10/24 01:04:35;;;;;;;4.28;1.35;;;14.30;99.90;;;;;;5114563;28;20031;-61
2023/10/24 01:07:01;;;;;;;4.22;1.00;;;14.30;99.90;;;;;;5114088;28;20028;-61
2023/10/24 01:09:27;;;;;;;2.28;0.82;;;14.30;99.90;;;;;;5114580;28;20531;-61
2023/10/24 01:11:57;;;;;;;1.90;1.17;;;14.30;99.90;;;;;;5114491;28;20066;-61
2023/10/24 01:14:23;;;;;;;3.35;1.10;;;14.30;99.90;;;;;;5114377;28;20031;-61
2023/10/24 01:16:49;;;;;;;3.85;1.42;;;14.40;99.90;;;;;;5114181;28;20521;-61
2023/10/24 01:19:15;;;;;;;4.03;1.48;;;14.30;99.90;;;;;;5114320;28;20020;-61
2023/10/24 01:21:45;;;;;;;3.70;1.20;;;14.30;99.90;;;;;;5114307;28;20032;-62
2023/10/24 01:24:15;;;;;;;3.70;1.63;;;14.20;99.90;;;;;;5114570;28;20043;-62
2023/10/24 01:26:42;;;;;;;1.83;0.98;;;14.10;99.90;;;;;;5114139;28;20027;-61
2023/10/24 01:29:08;;;;;;;3.95;1.20;;;13.90;99.90;;;;;;5113865;28;20517;-62
2023/10/24 01:31:34;;;;;;;2.92;1.08;;;13.80;99.90;;;;;;5113791;28;20489;-61
2023/10/24 01:34:00;;;;;;;2.53;1.17;;;13.70;99.90;;;;;;5114007;28;20111;-61
2023/10/24 01:36:25;;;;;;;2.30;1.10;;;13.60;99.90;;;;;;5113749;28;20425;-61
2023/10/24 01:38:51;;;;;;;3.75;1.40;;;13.50;99.90;;;;;;5114017;28;20016;-62
2023/10/24 01:41:17;;;;;;;5.38;1.50;;;13.40;99.90;;;;;;5114025;28;20086;-61
2023/10/24 01:43:42;;;;;;;5.93;1.30;;;13.30;99.90;;;;;;5113972;28;20027;-61
2023/10/24 01:46:08;;;;;;;4.47;1.20;;;13.30;99.90;;;;;;5113887;28;20023;-62
2023/10/24 01:48:33;;;;;;;6.10;1.33;;;13.30;99.90;;;;;;5113695;28;20059;-62
2023/10/24 01:50:59;;;;;;;3.25;1.20;;;13.30;99.90;;;;;;5113931;28;20023;-61
2023/10/24 01:53:25;;;;;;;3.42;1.30;;;13.40;99.90;;;;;;5114091;28;20092;-61
2023/10/24 01:55:51;;;;;;;3.67;1.40;;;13.30;99.90;;;;;;5113647;28;20044;-61
2023/10/24 01:58:16;;;;;;;3.63;1.27;;;13.30;99.90;;;;;;5113346;28;20043;-62
2023/10/24 02:00:42;;;;;;;3.08;1.10;;;13.30;99.90;;;;;;5113264;28;20020;-62
2023/10/24 02:03:07;;;;;;;3.92;1.30;;;13.20;99.90;;;;;;5113326;28;20024;-61
2023/10/24 02:05:33;;;;;;;3.90;1.40;;;13.20;99.90;;;;;;5113641;28;20026;-61
2023/10/24 02:07:59;;;;;;;3.17;1.20;;;13.20;99.90;;;;;;5113774;28;20107;-61
2023/10/24 02:10:25;;;;;;;3.83;1.20;;;13.30;99.90;;;;;;5113359;28;20024;-61
2023/10/24 02:12:50;;;;;;;3.67;1.20;;;13.30;99.90;;;;;;5113184;28;20028;-61
2023/10/24 02:15:16;;;;;;;5.60;1.77;;;13.20;99.90;;;;;;5113387;28;20400;-62
2023/10/24 02:17:42;;;;;;;3.47;1.10;;;13.20;99.90;;;;;;5112799;28;20067;-62
2023/10/24 02:20:10;;;;;;;4.95;1.50;;;13.20;99.90;;;;;;5113555;28;20524;-62
2023/10/24 02:22:36;;;;;;;4.63;1.35;;;13.20;99.90;;;;;;5113043;28;20027;-61
2023/10/24 02:25:02;;;;;;;5.95;1.30;;;13.20;99.90;;;;;;5112385;28;20035;-61
2023/10/24 02:27:27;;;;;;;4.03;1.23;;;13.20;99.90;;;;;;5112971;28;20037;-61
2023/10/24 02:29:53;;;;;;;4.18;1.60;;;13.20;99.90;;;;;;5111573;28;20046;-61
2023/10/24 02:32:19;;;;;;;4.60;1.40;;;13.20;99.90;;;;;;5094349;28;20023;-62
2023/10/24 02:34:49;;;;;;;4.30;1.40;;;13.50;99.90;;;;;;5112933;28;20038;-62
2023/10/24 02:37:15;;;;;;;4.60;1.38;;;13.80;99.90;;;;;;5094350;28;20035;-61
2023/10/24 02:39:41;;;;;;;3.50;1.20;;;14.00;99.90;;;;;;5094249;28;20057;-62
2023/10/24 02:42:07;;;;;;;4.22;1.30;;;14.20;99.90;;;;;;5112570;28;20035;-61
2023/10/24 02:44:33;;;;;;;3.42;1.23;;;14.30;99.90;;;;;;5112689;28;20477;-62
2023/10/24 02:46:59;;;;;;;4.57;1.20;;;14.30;99.90;;;;;;5112667;28;20109;-62
2023/10/24 02:49:25;;;;;;;3.67;1.20;;;14.30;99.90;;;;;;5112566;28;20035;-62
2023/10/24 02:51:51;;;;;;;5.28;1.20;;;14.30;99.90;;;;;;5112524;28;20023;-62
2023/10/24 02:54:17;;;;;;;3.67;1.40;;;14.30;99.90;;;;;;5112338;28;20062;-61
2023/10/24 02:56:42;;;;;;;3.55;1.42;;;14.30;99.90;;;;;;5112410;28;20119;-62
2023/10/24 02:59:08;;;;;;;6.78;1.55;;;14.30;99.90;;;;;;5112117;28;20031;-61
2023/10/24 03:01:34;;;;;;;4.57;1.13;;;14.30;99.90;;;;;;5112346;28;20023;-61
2023/10/24 03:04:00;;;;;;;5.45;1.48;;;14.20;99.90;;;;;;5112242;28;20054;-62
2023/10/24 03:06:25;;;;;;;5.72;1.30;;;14.00;99.90;;;;;;5112693;28;20119;-62
2023/10/24 03:08:51;;;;;;;4.35;1.20;;;13.90;99.90;;;;;;5112259;28;20024;-63
2023/10/24 03:11:24;;;;;;;5.38;1.50;;;13.80;99.90;;;;;;5112090;28;20032;-63
2023/10/24 03:13:52;;;;;;;6.75;1.60;;;13.70;99.90;;;;;;5112046;28;20022;-62
2023/10/24 03:16:18;;;;;;;4.32;1.45;;;13.50;99.90;;;;;;5112018;28;20034;-62
2023/10/24 03:18:44;;;;;;;3.85;1.40;;;13.50;99.90;;;;;;5112324;28;20027;-62
2023/10/24 03:21:09;;;;;;;6.28;1.70;;;13.40;99.90;;;;;;5112173;28;20073;-61
2023/10/24 03:23:35;;;;;;;3.65;1.25;;;13.40;99.90;;;;;;5111839;28;20028;-61
2023/10/24 03:26:04;;;;;;;5.38;1.35;;;13.40;99.90;;;;;;5111654;28;20501;-62
2023/10/24 03:28:30;;;;;;;3.85;1.38;;;13.40;99.90;;;;;;5111520;28;20089;-62
2023/10/24 03:31:07;;;;;;;5.28;1.40;;;13.40;99.90;;;;;;5112388;28;20024;-62
2023/10/24 03:33:34;;;;;;;3.45;1.55;;;13.40;99.90;;;;;;5111881;28;20026;-62
2023/10/24 03:36:00;;;;;;;3.55;1.30;;;13.30;99.90;;;;;;5111767;28;20019;-62
2023/10/24 03:38:27;;;;;;;4.43;1.48;;;13.40;99.90;;;;;;5111803;28;20039;-62
2023/10/24 03:40:53;;;;;;;3.33;1.27;;;13.30;99.90;;;;;;5111541;28;20069;-62
2023/10/24 03:43:20;;;;;;;4.07;1.33;;;13.30;99.90;;;;;;5093612;28;20020;-62
2023/10/24 03:45:45;;;;;;;5.82;1.65;;;13.20;99.90;;;;;;5111609;28;20023;-61
2023/10/24 03:48:12;;;;;;;5.70;1.48;;;13.20;99.90;;;;;;5111968;28;20047;-62
2023/10/24 03:50:39;;;;;;;4.80;1.60;;;13.10;99.90;;;;;;5111030;28;20073;-61
2023/10/24 03:53:05;;;;;;;5.88;1.50;;;13.10;99.90;;;;;;5110972;28;20478;-62
2023/10/24 03:55:31;;;;;;;4.13;1.20;;;13.10;99.90;;;;;;5111646;28;20015;-62
2023/10/24 03:57:57;;;;;;;3.78;1.50;;;13.10;99.90;;;;;;5111519;28;20038;-62
2023/10/24 04:00:24;;;;;;;4.15;1.63;;;13.00;99.90;;;;;;5111987;28;20024;-61
2023/10/24 04:02:56;;;;;;;5.25;1.73;;;13.00;99.90;;;;;;5111383;28;20039;-61
2023/10/24 04:05:22;;;;;;;3.17;1.40;;;13.00;99.90;;;;;;5111547;28;20023;-62
2023/10/24 04:07:48;;;;;;;4.13;1.58;;;13.00;99.90;;;;;;5111173;28;20020;-61
2023/10/24 04:10:15;;;;;;;7.25;1.50;;;13.00;99.90;;;;;;5111423;28;20027;-61
2023/10/24 04:12:41;;;;;;;3.80;1.58;;;13.00;99.90;;;;;;5111474;28;20030;-62
2023/10/24 04:15:10;;;;;;;4.50;1.52;;;13.10;99.90;;;;;;5111585;28;20106;-61
2023/10/24 04:17:36;;;;;;;4.90;1.60;;;13.30;99.90;;;;;;5111583;28;20032;-61
2023/10/24 04:20:02;;;;;;;2.90;1.33;;;13.40;99.90;;;;;;5111389;28;20054;-62
2023/10/24 04:22:28;;;;;;;4.80;1.40;;;13.40;99.90;;;;;;5111101;28;20020;-61
2023/10/24 04:24:54;;;;;;;3.53;1.13;;;13.50;99.90;;;;;;5110838;28;20080;-62
2023/10/24 04:27:19;;;;;;;3.08;1.30;;;13.50;99.90;;;;;;5111238;28;20020;-62
2023/10/24 04:29:46;;;;;;;3.50;1.20;;;13.50;99.90;;;;;;5092779;28;20044;-62
2023/10/24 04:32:12;;;;;;;3.92;1.40;;;13.50;99.90;;;;;;5110876;28;20026;-62
2023/10/24 04:34:38;;;;;;;2.65;1.25;;;13.50;99.90;;;;;;5111746;28;20027;-62
2023/10/24 04:37:04;;;;;;;3.95;1.40;;;13.50;99.90;;;;;;5111059;28;20038;-62
2023/10/24 04:39:30;;;;;;;2.85;1.35;;;13.60;99.90;;;;;;5110984;28;20035;-62
2023/10/24 04:41:55;;;;;;;3.13;1.20;;;13.50;99.90;;;;;;5111025;28;20027;-61
2023/10/24 04:44:21;;;;;;;6.65;1.60;;;13.50;99.90;;;;;;5111222;28;20137;-61
2023/10/24 04:46:47;;;;;;;3.97;1.30;;;13.30;99.90;;;;;;5111094;28;20131;-62
2023/10/24 04:49:15;;;;;;;3.28;1.50;;;13.10;99.90;;;;;;5111430;28;20034;-62
2023/10/24 04:51:41;;;;;;;2.58;1.20;;;13.00;99.90;;;;;;5111078;28;20028;-62
2023/10/24 04:54:08;;;;;;;5.55;1.50;;;12.90;99.90;;;;;;5110632;28;20379;-62
2023/10/24 04:56:34;;;;;;;4.72;1.50;;;12.80;99.90;;;;;;5111007;28;20065;-61
2023/10/24 04:58:59;;;;;;;2.67;1.48;;;12.70;99.90;;;;;;5111332;28;20070;-62
2023/10/24 05:01:25;;;;;;;4.68;1.48;;;12.60;99.90;;;;;;5112424;28;20032;-62
2023/10/24 05:03:51;;;;;;;3.58;1.27;;;12.60;99.90;;;;;;5114727;28;20439;-62
2023/10/24 05:06:16;;;;;;;5.80;1.35;;;12.60;99.90;;;;;;5114577;28;20027;-61
2023/10/24 05:08:42;;;;;;;7.47;1.58;;;12.50;99.90;;;;;;5114316;28;20465;-62
2023/10/24 05:11:08;;;;;;;3.10;1.20;;;12.50;99.90;;;;;;5114549;28;20120;-61
2023/10/24 05:13:33;;;;;;;4.45;1.40;;;12.40;99.90;;;;;;5114450;28;20027;-61
2023/10/24 05:15:59;;;;;;;5.35;1.88;;;12.40;99.90;;;;;;5114597;28;20027;-61
2023/10/24 05:18:25;;;;;;;3.13;1.40;;;12.40;99.90;;;;;;5114653;28;20042;-62
2023/10/24 05:20:50;;;;;;;3.95;1.65;;;12.40;99.90;;;;;;5114128;28;20029;-62
2023/10/24 05:23:16;;;;;;;3.45;1.58;;;12.40;99.90;;;;;;5114039;28;20027;-62
2023/10/24 05:25:42;;;;;;;4.45;1.52;;;12.40;99.90;;;;;;5113849;28;20035;-62
2023/10/24 05:28:08;;;;;;;4.80;1.60;;;12.30;99.90;;;;;;5114004;28;20063;-62
2023/10/24 05:30:38;;;;;;;4.38;1.40;;;12.30;99.90;;;;;;5114068;28;20024;-61
2023/10/24 05:33:05;;;;;;;4.47;1.60;;;12.30;99.90;;;;;;5113912;28;20027;-62
2023/10/24 05:35:32;;;;;;;4.60;1.50;;;12.30;99.90;;;;;;5114269;28;20015;-62
2023/10/24 05:37:58;;;;;;;3.28;1.40;;;12.30;99.90;;;;;;5095349;28;20452;-61
2023/10/24 05:40:24;;;;;;;4.47;1.58;;;12.30;99.90;;;;;;5114006;28;20031;-62
2023/10/24 05:42:51;;;;;;;5.38;1.80;;;12.30;99.90;;;;;;5114067;28;20405;-61
2023/10/24 05:45:17;;;;;;;4.15;1.30;;;12.30;99.90;;;;;;5113863;28;20098;-62
2023/10/24 05:47:42;;;;;;;4.65;1.77;;;12.30;99.90;;;;;;5113759;28;20442;-62
2023/10/24 05:50:09;;;;;;;4.55;1.50;;;12.30;99.90;;;;;;5114057;28;20030;-61
2023/10/24 05:52:34;;;;;;;4.40;1.33;;;12.30;99.90;;;;;;5113336;28;20047;-61
2023/10/24 05:55:00;;;;;;;3.45;1.33;;;12.30;99.90;;;;;;5113629;28;20049;-62
2023/10/24 05:57:27;;;;;;;5.90;1.70;;;12.30;99.90;;;;;;5113524;28;20031;-62
2023/10/24 05:59:53;;;;;;;3.28;1.50;;;12.50;99.90;;;;;;5113429;28;20036;-62
2023/10/24 06:02:18;;;;;;;4.22;1.40;;;12.60;99.90;;;;;;5095581;28;20115;-62
2023/10/24 06:04:44;;;;;;;4.93;1.65;;;12.80;99.90;;;;;;5095264;28;20035;-62
2023/10/24 06:07:10;;;;;;;4.70;1.40;;;12.90;99.90;;;;;;5113267;28;20038;-61
2023/10/24 06:09:35;;;;;;;4.25;1.35;;;12.90;99.90;;;;;;5113396;28;20110;-62
2023/10/24 06:12:01;;;;;;;6.30;1.50;;;13.00;99.90;;;;;;5113033;28;20030;-62
2023/10/24 06:14:27;;;;;;;3.60;1.20;;;13.00;99.90;;;;;;5112810;28;20089;-62
2023/10/24 06:16:52;;;;;;;5.28;1.40;;;13.00;99.90;;;;;;5113779;28;20028;-62
2023/10/24 06:19:18;;;;;;;4.47;1.40;;;13.00;99.90;;;;;;5113372;28;20024;-61
2023/10/24 06:21:44;;;;;;;5.72;1.63;;;13.00;99.90;;;;;;5112661;28;20024;-62
2023/10/24 06:24:09;;;;;;;4.03;1.65;;;13.00;99.90;;;;;;5112887;28;20031;-62
2023/10/24 06:26:35;;;;;;;5.88;1.88;;;12.90;99.90;;;;;;5113090;28;20397;-62
2023/10/24 06:29:01;;;;;;;5.00;1.80;;;12.90;99.90;;;;;;5111825;28;20585;-62
2023/10/24 06:31:28;;;;;;;4.65;1.65;;;12.70;99.90;;;;;;5113274;28;20028;-62
2023/10/24 06:33:54;;;;;;;4.38;1.40;;;12.70;99.90;;;;;;5112843;28;20019;-61
2023/10/24 06:36:21;;;;;;;5.70;1.65;;;12.50;99.90;;;;;;5112023;28;20038;-62
2023/10/24 06:38:46;;;;;;;5.03;1.50;;;12.40;99.90;;;;;;5112830;28;20036;-61
2023/10/24 06:41:13;;;;;;;4.25;1.70;;;12.40;99.90;;;;;;5113112;28;20035;-61
2023/10/24 06:43:39;;;;;;;3.53;1.40;;;12.30;99.90;;;;;;5112836;28;20386;-61
2023/10/24 06:46:05;;;;;;;4.75;1.63;;;12.20;99.90;;;;;;5112613;28;20027;-61
2023/10/24 06:48:32;;;;;;;5.35;1.60;;;12.20;99.90;;;;;;5112039;28;20027;-60
2023/10/24 06:50:58;;;;;;;5.93;1.83;;;12.20;99.90;;;;;;5111782;28;20031;-61
2023/10/24 06:53:24;;;;;;;5.35;1.60;;;12.20;99.90;;;;;;5112615;28;20482;-61
2023/10/24 06:55:50;;;;;;;3.88;1.63;;;12.10;99.90;;;;;;5112389;28;20028;-61
2023/10/24 06:58:15;;;;;;;6.38;1.90;;;12.00;99.90;;;;;;5094169;28;20516;-62
2023/10/24 07:00:43;;;;;;;6.07;1.60;;;12.00;99.90;;;;;;5094406;28;20394;-61
2023/10/24 07:03:08;;;;;;;5.35;1.48;;;12.00;99.90;;;;;;5112134;28;20041;-61
2023/10/24 07:05:34;;;;;;;7.82;1.52;;;12.00;99.90;;;;;;5112039;28;20019;-61
2023/10/24 07:07:59;;;;;;;5.32;1.90;;;12.00;99.90;;;;;;5112275;28;20111;-60
2023/10/24 07:10:25;;;;;;;4.88;1.65;;;12.00;99.90;;;;;;5112161;28;20023;-61
2023/10/24 07:12:51;;;;;;;3.88;2.00;;;11.90;99.90;;;;;;5112172;28;20810;-60
2023/10/24 07:15:16;;;;;;;6.40;1.83;;;11.90;99.90;;;;;;5112018;28;20061;-61
2023/10/24 07:17:42;;;;;;;7.78;1.50;;;11.90;99.90;;;;;;5112440;28;20497;-61
2023/10/24 07:20:09;;;;;;;4.35;1.65;;;11.90;99.90;;;;;;5111918;28;20023;-61
2023/10/24 07:22:34;;;;;;;4.68;1.92;;;11.90;99.90;;;;;;5112018;28;20588;-62
2023/10/24 07:25:00;;;;;;;7.13;2.08;;;11.90;99.90;;;;;;5102166;28;20111;-60
2023/10/24 07:27:26;;;;;;;5.38;1.77;;;11.90;99.90;;;;;;5091501;28;20784;-60
2023/10/24 07:29:51;;;;;;;4.18;1.67;;;11.90;99.90;;;;;;5073118;28;20495;-61
2023/10/24 07:32:17;;;;;;;8.27;1.90;;;11.90;99.90;;;;;;5071306;28;20056;-61
2023/10/24 07:34:43;;;;;;;5.15;1.70;;;12.00;99.90;;;;;;5070995;28;20020;-61
2023/10/24 07:37:09;;;;;;;4.20;1.75;;;12.00;99.90;;;;;;5071085;28;20411;-61
2023/10/24 07:39:35;;;;;;;4.15;1.80;;;12.00;99.90;;;;;;5071270;28;20549;-62
2023/10/24 07:42:01;;;;;;;6.03;1.70;;;12.00;99.90;;;;;;5071535;28;20052;-61
2023/10/24 07:44:27;;;;;;;6.93;1.58;;;12.20;99.90;;;;;;5053000;28;20545;-61
2023/10/24 07:46:53;;;;;;;5.75;1.88;;;12.40;99.90;;;;;;5071106;28;20056;-61
2023/10/24 07:49:18;;;;;;;5.57;1.60;;;12.60;99.90;;;;;;5070729;28;20047;-61
2023/10/24 07:51:44;;;;;;;6.22;2.20;;;12.70;99.90;;;;;;5070988;28;20035;-62
2023/10/24 07:54:13;;;;;;;5.05;2.00;;;12.90;99.90;;;;;;5071673;28;20467;-61
2023/10/24 07:56:40;;;;;;;4.88;2.17;;;13.00;99.90;;;;;;5070861;28;20028;-61
2023/10/24 07:59:07;;;;;;;5.60;1.80;;;13.00;99.90;;;;;;5071122;28;20020;-62
2023/10/24 08:01:33;;;;;;;4.63;2.00;;;13.10;99.90;;;;;;5052651;28;20025;-61
2023/10/24 08:03:59;;;;;;;3.60;1.85;;;13.20;99.90;;;;;;5070968;28;20025;-62
2023/10/24 08:06:25;;;;;;;4.00;1.65;;;13.20;99.90;;;;;;5070901;28;20029;-61
2023/10/24 08:08:51;;;;;;;6.47;1.92;;;13.30;99.90;;;;;;5070991;28;20071;-61
2023/10/24 08:11:17;;;;;;;3.78;1.60;;;13.30;99.90;;;;;;5071196;28;20039;-62
2023/10/24 08:13:42;;;;;;;6.72;1.83;;;13.40;99.90;;;;;;5070829;28;20047;-61
2023/10/24 08:16:08;;;;;;;5.28;1.67;;;13.40;99.90;;;;;;5070522;28;20095;-61
2023/10/24 08:18:37;;;;;;;4.00;1.38;;;13.30;99.90;;;;;;5070980;28;20033;-61
2023/10/24 08:21:03;;;;;;;4.63;1.70;;;13.30;99.90;;;;;;5070588;28;20059;-61
2023/10/24 08:23:29;;;;;;;4.40;1.70;;;13.30;99.90;;;;;;5071229;28;20435;-61
2023/10/24 08:25:56;;;;;;;5.90;2.25;;;13.40;99.90;;;;;;5087163;28;20066;-62
2023/10/24 08:28:22;;;;;;;3.30;1.65;;;13.50;99.90;;;;;;5090516;28;20047;-61
2023/10/24 08:30:48;;;;;;;4.10;1.88;;;13.50;99.90;;;;;;5089060;28;20017;-61
2023/10/24 08:33:15;;;;;;;3.72;1.45;;;13.60;99.90;;;;;;5090928;28;20413;-61
2023/10/24 08:35:41;;;;;;;3.97;1.60;;;13.70;99.90;;;;;;5073479;28;20019;-61
2023/10/24 08:38:06;;;;;;;2.85;1.40;;;13.80;99.90;;;;;;5094791;28;20044;-61
2023/10/24 08:40:47;;;;;;;4.45;1.50;;;13.80;99.90;;;;;;5012379;28;20054;-61
2023/10/24 08:43:13;;;;;;;5.70;1.55;;;13.80;99.90;;;;;;5012740;28;20040;-62
2023/10/24 08:45:39;;;;;;;4.13;1.60;;;13.80;99.90;;;;;;5011928;28;20041;-61
2023/10/24 08:48:05;;;;;;;3.58;1.50;;;13.70;99.90;;;;;;5012273;28;20037;-61
2023/10/24 08:50:34;;;;;;;5.32;1.65;;;13.70;99.90;;;;;;5012429;28;20040;-62
2023/10/24 08:53:00;;;;;;;4.55;1.45;;;13.70;99.90;;;;;;5012369;28;20026;-61
2023/10/24 08:55:27;;;;;;;2.78;1.40;;;13.70;99.90;;;;;;5012286;28;20041;-61
2023/10/24 08:57:54;;;;;;;4.97;1.48;;;13.80;99.90;;;;;;5011931;28;20142;-62
2023/10/24 09:00:19;;;;;;;4.18;1.60;;;13.80;99.90;;;;;;5011569;28;20058;-62
2023/10/24 09:02:46;;;;;;;4.25;1.50;;;13.90;99.90;;;;;;5012510;28;20084;-61
2023/10/24 09:05:14;;;;;;;5.20;1.60;;;14.00;99.90;;;;;;5012064;28;20057;-61
2023/10/24 09:07:40;;;;;;;5.55;1.65;;;14.10;99.90;;;;;;5012112;28;20030;-61
2023/10/24 09:10:07;;;;;;;4.72;1.55;;;14.10;99.90;;;;;;5012099;28;20112;-61
2023/10/24 09:12:34;;;;;;;4.18;2.03;;;14.20;99.90;;;;;;5011815;28;20057;-61
2023/10/24 09:15:00;;;;;;;3.55;1.42;;;14.30;99.90;;;;;;5011449;28;20022;-61
2023/10/24 09:17:26;;;;;;;4.32;1.55;;;14.40;99.90;;;;;;5035192;28;20052;-61
2023/10/24 09:19:55;;;;;;;5.40;1.58;;;14.50;99.90;;;;;;5093951;28;20558;-61
2023/10/24 09:22:22;;;;;;;3.70;1.23;;;14.60;99.90;;;;;;5093957;28;20179;-61
2023/10/24 09:24:50;;;;;;;3.85;1.10;;;14.70;99.90;;;;;;5093637;28;20402;-61
2023/10/24 09:27:27;;;;;;;5.82;1.20;;;14.80;99.90;;;;;;5093781;28;20128;-61
2023/10/24 09:29:53;;;;;;;5.82;1.58;;;14.90;99.90;;;;;;5111451;28;20497;-61
2023/10/24 09:32:20;;;;;;;4.40;1.20;;;15.20;99.90;;;;;;5114217;28;20080;-61
2023/10/24 09:34:47;;;;;;;3.83;1.42;;;15.30;99.90;;;;;;5114178;28;20081;-61
2023/10/24 09:37:13;;;;;;;3.72;1.67;;;15.40;99.90;;;;;;5113818;28;20039;-61
2023/10/24 09:39:57;;;;;;;5.03;1.40;;;15.70;99.90;;;;;;5114029;28;20019;-61
2023/10/24 09:42:28;;;;;;;4.25;1.30;;;15.90;99.90;;;;;;5114059;28;20093;-61
2023/10/24 09:44:55;;;;;;;4.65;1.40;;;15.90;99.90;;;;;;5113753;28;20480;-61
2023/10/24 09:47:22;;;;;;;5.35;1.40;;;15.80;99.90;;;;;;5112641;28;20030;-61
2023/10/24 09:49:53;;;;;;;4.85;1.42;;;15.90;99.90;;;;;;5095452;28;20406;-61
2023/10/24 09:52:22;;;;;;;3.38;1.30;;;16.10;99.90;;;;;;5113600;28;20486;-61
2023/10/24 09:54:50;;;;;;;5.03;1.33;;;16.30;99.90;;;;;;5113550;28;20024;-61
2023/10/24 09:57:18;;;;;;;4.88;1.30;;;16.30;99.90;;;;;;5113401;28;20128;-61
2023/10/24 09:59:47;;;;;;;3.72;1.35;;;16.40;99.90;;;;;;5113237;28;20102;-61
2023/10/24 10:02:14;;;;;;;4.97;1.75;;;16.40;99.90;;;;;;5113857;28;20627;-61
2023/10/24 10:04:41;;;;;;;5.28;1.58;;;16.30;99.90;;;;;;5113528;28;20034;-61
2023/10/24 10:07:10;;;;;;;5.30;1.67;;;16.20;99.90;;;;;;5113392;28;20031;-61
2023/10/24 10:09:41;;;;;;;6.72;1.60;;;16.10;99.90;;;;;;5113450;28;20035;-60
2023/10/24 10:12:12;;;;;;;5.95;1.38;;;16.20;99.90;;;;;;5113352;28;20058;-61
2023/10/24 10:15:17;;;;;;;6.47;1.60;;;16.10;99.90;;;;;;5113376;28;20024;-61
2023/10/24 10:17:49;;;;;;;3.90;1.27;;;16.20;99.90;;;;;;5112946;28;20032;-61
2023/10/24 10:20:50;;;;;;;7.10;1.50;;;16.30;99.90;;;;;;5112431;28;20106;-61
2023/10/24 10:23:50;;;;;;;4.35;1.40;;;16.40;99.90;;;;;;5108778;28;20070;-61
2023/10/24 10:26:22;;;;;;;5.18;1.55;;;16.40;99.90;;;;;;5112981;28;20489;-61
2023/10/24 10:29:05;;;;;;;4.30;1.52;;;16.50;99.90;;;;;;5111982;28;20135;-61
2023/10/24 10:31:33;;;;;;;5.13;2.10;;;16.50;99.90;;;;;;5112807;28;20591;-60
2023/10/24 10:34:00;;;;;;;4.18;1.40;;;16.60;99.90;;;;;;5112970;28;20022;-61
2023/10/24 10:36:26;;;;;;;5.22;1.55;;;16.70;99.90;;;;;;5094985;28;20482;-61
2023/10/24 10:38:54;;;;;;;5.25;1.67;;;16.70;99.90;;;;;;5112496;28;20038;-61
2023/10/24 10:41:32;;;;;;;7.05;2.05;;;16.70;99.90;;;;;;5112504;28;20024;-61
2023/10/24 10:43:59;;;;;;;6.32;1.70;;;16.80;99.90;;;;;;5113043;28;20042;-61
2023/10/24 10:46:27;;;;;;;7.07;1.88;;;16.80;99.90;;;;;;5112958;28;20031;-61
2023/10/24 10:49:03;;;;;;;4.15;1.60;;;16.90;99.90;;;;;;5112682;28;20102;-61
2023/10/24 10:51:32;;;;;;;4.10;1.70;;;16.90;99.90;;;;;;5112656;28;20047;-62
2023/10/24 10:54:09;;;;;;;6.43;2.00;;;17.00;99.90;;;;;;5112431;28;20102;-61
2023/10/24 10:56:37;;;;;;;4.80;1.73;;;17.00;99.90;;;;;;5112067;28;20035;-61
2023/10/24 10:59:20;;;;;;;4.20;1.60;;;17.10;99.90;;;;;;5111258;28;20575;-61
2023/10/24 11:02:14;;;;;;;4.00;1.75;;;17.20;99.90;;;;;;5111881;28;20031;-61
2023/10/24 11:04:39;;;;;;;4.27;1.60;;;17.30;99.90;;;;;;5112172;28;20027;-62
2023/10/24 11:07:06;;;;;;;2.90;1.40;;;17.20;99.90;;;;;;5112323;28;20038;-61
2023/10/24 11:09:37;;;;;;;6.00;1.60;;;17.30;99.90;;;;;;5111962;28;20535;-61
2023/10/24 11:12:21;;;;;;;6.28;1.88;;;17.50;99.90;;;;;;5111012;28;20027;-60
2023/10/24 11:15:14;;;;;;;6.07;1.55;;;17.70;99.90;;;;;;5111950;28;20035;-62
2023/10/24 11:17:41;;;;;;;6.60;1.85;;;17.70;99.90;;;;;;5112045;28;20047;-61
2023/10/24 11:20:10;;;;;;;5.07;1.60;;;17.80;99.90;;;;;;5111995;28;20546;-61
2023/10/24 11:22:39;;;;;;;5.75;1.58;;;17.80;99.90;;;;;;5112341;28;20030;-61
2023/10/24 11:25:11;;;;;;;4.93;1.40;;;17.90;99.90;;;;;;5111514;28;20023;-60
2023/10/24 11:27:38;;;;;;;4.23;1.40;;;18.00;99.90;;;;;;5112037;28;20038;-61
2023/10/24 11:30:05;;;;;;;7.07;1.58;;;17.90;99.90;;;;;;5111278;28;20782;-61
2023/10/24 11:32:31;;;;;;;4.10;1.30;;;17.70;99.90;;;;;;5111759;28;20142;-62
2023/10/24 11:34:57;;;;;;;5.07;1.80;;;17.60;99.90;;;;;;5111712;28;20103;-62
2023/10/24 11:37:22;;;;;;;5.65;1.45;;;17.70;99.90;;;;;;5111551;28;20032;-60
2023/10/24 11:39:49;;;;;;;6.72;1.70;;;17.70;99.90;;;;;;5111045;28;20047;-61
2023/10/24 11:42:15;;;;;;;6.75;1.60;;;17.70;99.90;;;;;;5111392;28;20047;-61
2023/10/24 11:44:41;;;;;;;5.45;1.38;;;17.50;99.90;;;;;;5111035;28;20110;-61
2023/10/24 11:47:13;;;;;;;6.00;1.80;;;17.50;99.90;;;;;;5111523;28;20027;-61
2023/10/24 11:49:39;;;;;;;5.30;1.60;;;17.30;99.90;;;;;;5111407;28;20505;-62
2023/10/24 11:52:05;;;;;;;4.55;1.50;;;17.30;99.90;;;;;;5111293;28;20514;-62
2023/10/24 11:54:31;;;;;;;2.53;1.45;;;17.30;99.90;;;;;;5111286;28;20028;-61
2023/10/24 11:56:57;;;;;;;5.03;1.30;;;17.30;99.90;;;;;;5093561;28;20521;-61
2023/10/24 11:59:22;;;;;;;5.20;1.35;;;17.30;99.90;;;;;;5111632;28;20016;-61
2023/10/24 12:01:49;;;;;;;4.00;1.45;;;17.20;99.90;;;;;;5111455;28;20032;-61
2023/10/24 12:04:15;;;;;;;4.53;1.50;;;17.10;99.90;;;;;;5110260;28;20401;-61
2023/10/24 12:06:41;;;;;;;4.38;1.40;;;17.10;99.90;;;;;;5111483;28;20139;-61
2023/10/24 12:09:07;;;;;;;3.30;1.13;;;17.10;99.90;;;;;;5111108;28;20098;-61
2023/10/24 12:11:34;;;;;;;2.78;1.30;;;17.10;99.90;;;;;;5113744;28;20055;-61
2023/10/24 12:14:00;;;;;;;4.25;1.30;;;17.00;99.90;;;;;;5115704;28;20024;-61
2023/10/24 12:16:34;;;;;;;2.25;1.02;;;17.10;99.90;;;;;;5115525;28;20478;-61
2023/10/24 12:18:59;;;;;;;;;;;17.10;99.90;;;;;;5116420;28;20177;-61
2023/10/24 12:21:25;;;;;;;4.43;1.60;;;17.10;99.90;;;;;;5115358;28;20004;-61
2023/10/24 12:23:50;;;;;;;3.75;1.15;;;17.00;99.90;;;;;;5115198;28;20054;-61
2023/10/24 12:26:16;;;;;;;3.95;1.60;;;17.00;99.90;;;;;;5115538;28;20386;-61
2023/10/24 12:28:45;;;;;;;2.85;1.23;;;17.10;99.90;;;;;;5115446;28;20048;-61
2023/10/24 12:31:11;;;;;;;4.35;1.27;;;17.10;99.90;;;;;;5115397;28;20098;-62
2023/10/24 12:33:37;;;;;;;3.25;1.38;;;17.10;99.90;;;;;;5115262;28;20036;-61
2023/10/24 12:36:06;;;;;;;3.47;1.30;;;17.00;99.90;;;;;;5115207;28;20027;-61
2023/10/24 12:38:32;;;;;;;3.25;1.20;;;17.00;99.90;;;;;;5114868;28;20042;-62
2023/10/24 12:40:58;;;;;;;2.15;1.10;;;17.10;99.90;;;;;;5115661;28;20019;-60
2023/10/24 12:43:24;;;;;;;3.75;1.40;;;17.20;99.90;;;;;;5115469;28;20108;-61
2023/10/24 12:45:51;;;;;;;3.25;1.40;;;17.30;99.90;;;;;;5115040;28;20052;-61
2023/10/24 12:48:17;;;;;;;2.95;1.25;;;17.40;99.90;;;;;;5115051;28;20439;-61